Time;durP1;ratioP1;P1;durP2;ratioP2;P2;SDS_P1;SDS_P2;PMS_P1;PMS_P2;Temp;Humidity;BMP_temperature;BMP_pressure;BME280_temperature;BME280_humidity;BME280_pressure;Samples;Min_cycle;Max_cycle;Signal;HPM_P1;HPM_P2
2023/04/16 00:01:02;;;;;;;16.15;11.25;;;8.50;1.00;;;;;;5034025;28;20033;-84
2023/04/16 00:03:28;;;;;;;16.98;11.57;;;8.50;1.00;;;;;;5033060;28;20545;-84
2023/04/16 00:05:55;;;;;;;17.38;11.32;;;8.40;1.00;;;;;;5033277;28;20030;-84
2023/04/16 00:08:25;;;;;;;15.85;11.15;;;8.40;1.00;;;;;;5032825;28;20426;-83
2023/04/16 00:10:52;;;;;;;16.13;11.00;;;8.40;1.00;;;;;;5033366;28;20033;-84
2023/04/16 00:13:18;;;;;;;18.67;12.07;;;8.30;1.00;;;;;;5032489;28;20474;-82
2023/04/16 00:15:45;;;;;;;20.50;12.18;;;8.30;1.00;;;;;;5033375;28;20041;-84
2023/04/16 00:18:11;;;;;;;22.25;13.25;;;8.30;1.00;;;;;;5033043;28;20386;-85
2023/04/16 00:20:37;;;;;;;18.10;13.00;;;8.30;1.00;;;;;;5035512;28;20045;-83
2023/04/16 00:23:03;;;;;;;21.55;14.02;;;8.20;1.00;;;;;;5033387;28;20057;-82
2023/04/16 00:25:30;;;;;;;21.10;14.15;;;8.20;1.00;;;;;;5032351;28;20152;-83
2023/04/16 00:27:56;;;;;;;20.30;13.80;;;8.20;1.00;;;;;;5031906;28;20030;-83
2023/04/16 00:30:22;;;;;;;22.30;16.13;;;8.20;3.80;;;;;;5031545;28;20049;-83
2023/04/16 00:32:48;;;;;;;21.73;15.45;;;8.20;1.00;;;;;;5033006;28;20033;-82
2023/04/16 00:35:15;;;;;;;24.90;16.50;;;8.20;1.00;;;;;;5031734;28;20466;-86
2023/04/16 00:37:41;;;;;;;26.38;18.40;;;8.20;1.00;;;;;;5032060;28;20045;-83
2023/04/16 00:40:07;;;;;;;25.65;18.38;;;8.20;11.00;;;;;;5033179;28;20036;-82
2023/04/16 00:42:35;;;;;;;26.55;16.63;;;8.10;18.80;;;;;;5031277;28;20049;-83
2023/04/16 00:45:02;;;;;;;24.30;16.27;;;8.10;18.60;;;;;;5023317;28;20040;-82
2023/04/16 00:47:28;;;;;;;26.13;18.70;;;8.10;22.90;;;;;;5030643;28;20033;-82
2023/04/16 00:49:54;;;;;;;26.98;20.33;;;8.10;48.00;;;;;;5040188;28;20056;-82
2023/04/16 00:52:20;;;;;;;29.85;21.42;;;8.00;68.50;;;;;;5032443;28;20049;-83
2023/04/16 00:54:47;;;;;;;32.50;21.92;;;8.00;93.40;;;;;;5044367;28;20045;-81
2023/04/16 00:57:14;;;;;;;34.00;20.60;;;7.90;99.90;;;;;;5033052;28;20084;-84
2023/04/16 00:59:41;;;;;;;27.90;18.33;;;7.90;99.90;;;;;;5033742;28;20025;-82
2023/04/16 01:02:07;;;;;;;27.08;18.08;;;8.00;99.90;;;;;;5033532;28;20033;-82
2023/04/16 01:04:34;;;;;;;26.70;17.45;;;7.90;99.90;;;;;;5033753;28;20037;-82
2023/04/16 01:07:00;;;;;;;29.48;18.25;;;7.90;99.90;;;;;;5034189;28;20037;-81
2023/04/16 01:09:27;;;;;;;27.60;18.88;;;7.90;99.90;;;;;;5033397;28;20049;-82
2023/04/16 01:11:53;;;;;;;27.42;15.73;;;8.00;99.90;;;;;;5032421;28;20057;-82
2023/04/16 01:14:19;;;;;;;27.42;17.15;;;8.00;99.90;;;;;;5027697;28;20050;-83
2023/04/16 01:16:45;;;;;;;28.48;16.73;;;8.00;99.90;;;;;;5036716;28;20041;-82
2023/04/16 01:19:11;;;;;;;30.25;17.00;;;8.00;99.90;;;;;;5032688;28;20033;-82
2023/04/16 01:21:38;;;;;;;25.88;17.25;;;8.00;99.90;;;;;;5034901;28;20030;-83
2023/04/16 01:24:04;;;;;;;29.95;17.88;;;8.00;99.90;;;;;;5032391;28;20116;-82
2023/04/16 01:26:30;;;;;;;27.10;15.82;;;8.00;99.90;;;;;;5032091;28;20034;-81
2023/04/16 01:28:58;;;;;;;26.58;17.17;;;8.00;99.90;;;;;;5032462;28;20037;-82
2023/04/16 01:31:24;;;;;;;25.30;16.10;;;8.00;99.90;;;;;;5031407;28;20029;-82
2023/04/16 01:33:57;;;;;;;27.05;16.20;;;8.00;96.80;;;;;;5028597;28;20391;-82
2023/04/16 01:36:25;;;;;;;27.50;16.30;;;8.00;94.90;;;;;;5030975;28;20049;-83
2023/04/16 01:38:52;;;;;;;30.25;15.57;;;8.00;94.00;;;;;;5032402;28;20037;-82
2023/04/16 01:41:18;;;;;;;27.90;15.95;;;8.00;92.70;;;;;;5031576;28;20037;-87
2023/04/16 01:43:44;;;;;;;28.08;15.10;;;8.00;94.70;;;;;;5027780;28;20041;-82
2023/04/16 01:46:19;;;;;;;29.88;15.90;;;8.00;94.60;;;;;;5012811;28;20030;-82
2023/04/16 01:48:46;;;;;;;26.65;16.70;;;8.00;91.60;;;;;;5016534;28;20482;-81
2023/04/16 01:51:12;;;;;;;25.85;15.55;;;8.00;77.40;;;;;;5031735;28;20046;-80
2023/04/16 01:53:38;;;;;;;27.85;16.52;;;7.90;77.30;;;;;;5032094;28;20029;-81
2023/04/16 01:56:05;;;;;;;24.92;15.27;;;8.00;48.10;;;;;;5043335;28;20498;-81
2023/04/16 01:58:32;;;;;;;27.38;16.45;;;8.00;29.00;;;;;;5035110;28;20044;-82
2023/04/16 02:00:59;;;;;;;23.90;14.80;;;8.00;26.40;;;;;;5046121;28;20037;-82
2023/04/16 02:03:26;;;;;;;28.42;14.25;;;8.00;21.00;;;;;;5037720;28;20049;-83
2023/04/16 02:05:52;;;;;;;27.25;16.40;;;8.00;30.00;;;;;;5038101;28;20037;-83
2023/04/16 02:08:18;;;;;;;26.95;16.83;;;8.00;34.30;;;;;;5038327;28;20041;-84
2023/04/16 02:10:48;;;;;;;25.83;15.63;;;8.00;33.30;;;;;;5038707;28;20033;-82
2023/04/16 02:13:15;;;;;;;28.85;16.48;;;8.00;37.40;;;;;;5038808;28;20041;-83
2023/04/16 02:15:47;;;;;;;25.08;15.70;;;8.00;42.50;;;;;;5024343;28;20041;-82
2023/04/16 02:18:15;;;;;;;30.30;17.17;;;8.00;28.40;;;;;;5025530;28;20045;-83
2023/04/16 02:20:43;;;;;;;25.42;15.63;;;8.00;27.60;;;;;;5036803;28;20072;-83
2023/04/16 02:23:10;;;;;;;30.13;16.92;;;8.00;18.60;;;;;;5033816;28;20044;-82
2023/04/16 02:25:45;;;;;;;25.33;16.70;;;8.00;15.40;;;;;;5037237;28;20033;-84
2023/04/16 02:28:16;;;;;;;27.17;17.00;;;8.00;9.30;;;;;;5037837;28;20025;-82
2023/04/16 02:30:44;;;;;;;23.27;15.50;;;8.00;3.40;;;;;;5036416;28;20052;-82
2023/04/16 02:33:12;;;;;;;25.70;16.65;;;8.10;1.00;;;;;;5038480;28;20042;-83
2023/04/16 02:35:44;;;;;;;28.65;17.48;;;8.00;1.00;;;;;;5053029;28;20053;-82
2023/04/16 02:38:10;;;;;;;25.52;15.77;;;8.00;3.90;;;;;;5020701;28;20045;-84
2023/04/16 02:40:37;;;;;;;26.65;16.73;;;8.00;9.80;;;;;;5040824;28;20045;-83
2023/04/16 02:43:03;;;;;;;28.00;15.90;;;8.00;14.00;;;;;;5032605;28;20501;-84
2023/04/16 02:45:30;;;;;;;26.27;16.50;;;8.00;9.40;;;;;;5053002;28;20045;-84
2023/04/16 02:47:56;;;;;;;25.77;16.10;;;8.10;2.10;;;;;;5038210;28;20347;-85
2023/04/16 02:50:22;;;;;;;24.83;15.82;;;8.10;1.00;;;;;;5033257;28;20049;-85
2023/04/16 02:52:50;;;;;;;28.45;17.52;;;8.00;1.00;;;;;;5035957;28;20033;-85
2023/04/16 02:55:16;;;;;;;28.23;17.20;;;8.00;1.00;;;;;;5049140;28;20042;-83
2023/04/16 02:57:42;;;;;;;28.30;16.08;;;8.00;1.00;;;;;;5046963;28;20312;-84
2023/04/16 03:00:09;;;;;;;26.17;16.58;;;8.10;1.00;;;;;;5053717;28;20029;-82
2023/04/16 03:02:35;;;;;;;25.58;16.60;;;8.00;1.00;;;;;;5037330;28;20034;-84
2023/04/16 03:05:02;;;;;;;29.27;16.95;;;8.00;1.00;;;;;;5037276;28;20394;-85
2023/04/16 03:07:29;;;;;;;26.35;15.90;;;8.00;1.00;;;;;;5036444;28;20046;-84
2023/04/16 03:09:55;;;;;;;25.48;16.20;;;8.00;1.00;;;;;;5032955;28;20049;-84
2023/04/16 03:12:21;;;;;;;26.42;17.25;;;8.00;1.00;;;;;;5033891;28;20467;-86
2023/04/16 03:14:50;;;;;;;29.00;16.38;;;8.00;1.00;;;;;;5034199;28;20034;-83
2023/04/16 03:17:16;;;;;;;28.80;17.52;;;8.00;1.00;;;;;;5034569;28;20032;-85
2023/04/16 03:19:42;;;;;;;28.02;16.10;;;8.00;1.00;;;;;;5034354;28;20029;-84
2023/04/16 03:22:08;;;;;;;25.98;15.75;;;8.00;1.00;;;;;;5034868;28;20037;-84
2023/04/16 03:24:35;;;;;;;30.10;17.15;;;8.00;1.00;;;;;;5034734;28;20041;-83
2023/04/16 03:27:01;;;;;;;28.23;16.67;;;8.00;1.00;;;;;;5030475;28;20030;-84
2023/04/16 03:29:28;;;;;;;29.10;17.25;;;8.00;1.00;;;;;;5040631;28;20379;-83
2023/04/16 03:31:55;;;;;;;24.50;15.70;;;8.00;1.00;;;;;;5034063;28;20041;-84
2023/04/16 03:34:22;;;;;;;27.00;15.80;;;8.00;1.00;;;;;;5016995;28;20042;-86
2023/04/16 03:36:49;;;;;;;25.38;15.93;;;8.00;1.00;;;;;;5029168;28;20048;-83
2023/04/16 03:39:15;;;;;;;28.45;16.42;;;8.00;1.00;;;;;;5033395;28;20045;-84
2023/04/16 03:41:41;;;;;;;25.08;16.35;;;8.00;1.00;;;;;;5035301;28;20050;-84
2023/04/16 03:44:08;;;;;;;27.60;16.95;;;8.00;1.00;;;;;;5033224;28;20045;-84
2023/04/16 03:46:34;;;;;;;29.20;16.83;;;8.10;1.00;;;;;;5041733;28;20045;-85
2023/04/16 03:49:00;;;;;;;27.05;16.27;;;8.10;1.00;;;;;;5033966;28;20139;-84
2023/04/16 03:51:28;;;;;;;24.35;15.55;;;8.10;1.00;;;;;;5032437;28;20490;-84
2023/04/16 03:53:54;;;;;;;30.20;15.35;;;8.10;1.00;;;;;;5044426;28;20052;-84
2023/04/16 03:56:23;;;;;;;27.20;14.88;;;8.10;1.00;;;;;;5016539;28;20394;-84
2023/04/16 03:58:51;;;;;;;25.80;15.48;;;8.10;1.00;;;;;;5040852;28;20072;-84
2023/04/16 04:01:18;;;;;;;28.13;16.88;;;8.00;1.00;;;;;;5028640;28;20037;-84
2023/04/16 04:03:44;;;;;;;25.00;14.32;;;8.10;1.00;;;;;;5032646;28;20490;-84
2023/04/16 04:06:11;;;;;;;25.60;14.55;;;8.10;1.00;;;;;;5040150;28;20041;-85
2023/04/16 04:08:37;;;;;;;23.20;14.40;;;8.10;1.00;;;;;;5031104;28;20045;-84
2023/04/16 04:11:05;;;;;;;29.65;15.98;;;8.10;1.00;;;;;;5040394;28;20044;-84
2023/04/16 04:13:33;;;;;;;29.88;15.27;;;8.10;1.00;;;;;;5031343;28;20467;-84
2023/04/16 04:15:59;;;;;;;26.65;16.25;;;8.10;1.00;;;;;;5033499;28;20040;-83
2023/04/16 04:18:26;;;;;;;29.83;15.52;;;8.10;1.00;;;;;;5044235;28;20042;-86
2023/04/16 04:20:52;;;;;;;22.95;14.20;;;8.10;1.00;;;;;;5032638;28;20039;-84
2023/04/16 04:23:22;;;;;;;27.45;14.65;;;8.10;1.00;;;;;;5039196;28;20337;-83
2023/04/16 04:25:49;;;;;;;24.85;15.13;;;8.10;1.00;;;;;;5047963;28;20060;-83
2023/04/16 04:28:15;;;;;;;23.95;15.00;;;8.10;1.00;;;;;;5032629;28;20045;-83
2023/04/16 04:30:42;;;;;;;23.40;14.25;;;8.10;1.00;;;;;;5048505;28;20387;-83
2023/04/16 04:33:08;;;;;;;20.77;13.05;;;8.10;1.00;;;;;;5032226;28;20045;-83
2023/04/16 04:35:34;;;;;;;24.10;14.45;;;8.10;1.00;;;;;;5036115;28;20068;-84
2023/04/16 04:38:02;;;;;;;24.20;14.90;;;8.10;1.00;;;;;;5032303;28;20037;-83
2023/04/16 04:40:28;;;;;;;24.77;13.75;;;8.10;1.00;;;;;;5032457;28;20032;-86
2023/04/16 04:42:54;;;;;;;22.55;13.45;;;8.10;1.00;;;;;;5032860;28;20060;-82
2023/04/16 04:45:25;;;;;;;22.95;13.23;;;8.10;1.00;;;;;;5031303;28;20049;-83
2023/04/16 04:47:53;;;;;;;25.80;15.10;;;8.10;1.00;;;;;;5032626;28;20037;-81
2023/04/16 04:50:20;;;;;;;19.10;12.77;;;8.10;1.00;;;;;;5031689;28;20034;-82
2023/04/16 04:52:47;;;;;;;21.20;12.93;;;8.10;1.00;;;;;;5031172;28;20044;-82
2023/04/16 04:55:14;;;;;;;20.05;12.35;;;8.10;1.00;;;;;;5032357;28;20033;-84
2023/04/16 04:57:41;;;;;;;20.52;12.77;;;8.10;1.00;;;;;;5030646;28;20061;-84
2023/04/16 05:00:08;;;;;;;18.88;10.95;;;8.10;1.00;;;;;;5032095;28;20061;-84
2023/04/16 05:02:43;;;;;;;18.85;11.02;;;8.20;1.00;;;;;;5020254;28;20042;-84
2023/04/16 05:05:09;;;;;;;16.05;10.15;;;8.20;1.00;;;;;;5025722;28;20025;-85
2023/04/16 05:07:35;;;;;;;20.00;10.45;;;8.20;1.00;;;;;;5033461;28;20037;-84
2023/04/16 05:10:01;;;;;;;18.17;10.35;;;8.20;1.00;;;;;;5033420;28;20033;-84
2023/04/16 05:12:27;;;;;;;18.60;11.40;;;8.20;1.00;;;;;;5033018;28;20033;-84
2023/04/16 05:14:54;;;;;;;16.27;9.35;;;8.30;1.00;;;;;;5032426;28;20041;-84
2023/04/16 05:17:20;;;;;;;14.23;8.18;;;8.20;1.00;;;;;;5032987;28;20379;-83
2023/04/16 05:19:46;;;;;;;14.40;8.70;;;8.30;1.00;;;;;;5031488;28;20037;-83
2023/04/16 05:22:12;;;;;;;20.13;9.32;;;8.30;1.00;;;;;;5033145;28;20033;-83
2023/04/16 05:24:38;;;;;;;12.52;8.63;;;8.20;1.00;;;;;;5033534;28;20037;-84
2023/04/16 05:27:05;;;;;;;18.67;8.95;;;8.30;1.00;;;;;;5033891;28;20037;-84
2023/04/16 05:29:31;;;;;;;13.25;8.48;;;8.30;1.00;;;;;;5034243;28;20040;-85
2023/04/16 05:31:57;;;;;;;16.48;8.70;;;8.40;1.00;;;;;;5043924;28;20376;-84
2023/04/16 05:34:23;;;;;;;12.93;9.38;;;8.40;1.00;;;;;;5032634;28;20376;-85
2023/04/16 05:36:49;;;;;;;14.40;9.45;;;8.40;1.00;;;;;;5031823;28;20038;-84
2023/04/16 05:39:16;;;;;;;14.90;8.48;;;8.40;1.00;;;;;;5040091;28;20394;-84
2023/04/16 05:41:42;;;;;;;14.07;8.00;;;8.50;1.00;;;;;;5031949;28;20483;-83
2023/04/16 05:44:08;;;;;;;15.50;9.35;;;8.60;1.00;;;;;;5033048;28;20037;-84
2023/04/16 05:46:34;;;;;;;12.38;7.65;;;8.60;1.00;;;;;;5032521;28;20037;-85
2023/04/16 05:49:00;;;;;;;13.02;7.53;;;8.70;1.00;;;;;;5032247;28;20030;-84
2023/04/16 05:51:26;;;;;;;13.80;9.35;;;8.70;1.00;;;;;;5031238;28;20040;-84
2023/04/16 05:53:52;;;;;;;11.13;7.43;;;8.70;1.00;;;;;;5034034;28;20025;-84
2023/04/16 05:56:20;;;;;;;14.80;7.80;;;8.60;1.00;;;;;;5032486;28;20037;-84
2023/04/16 05:58:46;;;;;;;13.30;8.57;;;8.60;1.00;;;;;;5036133;28;20068;-86
2023/04/16 06:01:13;;;;;;;14.73;8.90;;;8.60;1.00;;;;;;5032359;28;20040;-86
2023/04/16 06:03:39;;;;;;;15.20;9.30;;;8.70;1.00;;;;;;5031998;28;20036;-86
2023/04/16 06:06:07;;;;;;;14.13;7.95;;;8.70;1.00;;;;;;5033728;28;20408;-84
2023/04/16 06:08:34;;;;;;;14.13;8.48;;;8.60;1.00;;;;;;5034562;28;20061;-86
2023/04/16 06:11:00;;;;;;;15.27;9.63;;;8.60;1.00;;;;;;5033577;28;20025;-84
2023/04/16 06:13:26;;;;;;;18.23;8.95;;;8.60;1.00;;;;;;5033576;28;20458;-86
2023/04/16 06:15:52;;;;;;;14.32;9.35;;;8.60;1.00;;;;;;5038467;28;20033;-83
2023/04/16 06:18:18;;;;;;;15.13;8.98;;;8.60;1.00;;;;;;5048400;28;20060;-84
2023/04/16 06:20:44;;;;;;;16.55;9.73;;;8.60;1.00;;;;;;5031795;28;20052;-85
2023/04/16 06:23:11;;;;;;;17.25;9.48;;;8.60;1.00;;;;;;5031046;28;20037;-85
2023/04/16 06:25:37;;;;;;;17.08;9.60;;;8.60;1.00;;;;;;5031629;28;20033;-84
2023/04/16 06:28:03;;;;;;;16.60;10.05;;;8.60;1.00;;;;;;5032194;28;20041;-85
2023/04/16 06:30:29;;;;;;;16.20;10.20;;;8.60;1.00;;;;;;5031369;28;20033;-84
2023/04/16 06:32:55;;;;;;;17.65;9.95;;;8.60;1.00;;;;;;5030349;28;20034;-84
2023/04/16 06:35:22;;;;;;;15.73;9.43;;;8.60;1.00;;;;;;5031557;28;20034;-85
2023/04/16 06:37:48;;;;;;;17.75;10.27;;;8.60;1.00;;;;;;5030468;28;20029;-85
2023/04/16 06:40:14;;;;;;;14.88;9.10;;;8.50;1.00;;;;;;5030913;28;20036;-84
2023/04/16 06:42:41;;;;;;;16.52;9.05;;;8.50;1.00;;;;;;5022582;28;20052;-85
2023/04/16 06:45:08;;;;;;;15.73;9.60;;;8.50;1.00;;;;;;5033962;28;20038;-83
2023/04/16 06:47:34;;;;;;;15.88;10.20;;;8.50;1.00;;;;;;5034376;28;20045;-84
2023/04/16 06:50:00;;;;;;;18.08;9.95;;;8.50;1.00;;;;;;5034285;28;20041;-84
2023/04/16 06:52:27;;;;;;;20.40;12.07;;;8.50;1.00;;;;;;5034430;28;20033;-84
2023/04/16 06:54:53;;;;;;;15.73;10.13;;;8.50;1.00;;;;;;5035389;28;20198;-82
2023/04/16 06:57:19;;;;;;;21.48;11.15;;;8.60;1.00;;;;;;5036811;28;20044;-85
2023/04/16 06:59:45;;;;;;;21.63;11.07;;;8.60;1.00;;;;;;5034716;28;20383;-85
2023/04/16 07:02:12;;;;;;;22.02;12.73;;;8.60;1.00;;;;;;5025735;28;20034;-85
2023/04/16 07:04:38;;;;;;;23.17;12.48;;;8.60;1.00;;;;;;5024111;28;20481;-85
2023/04/16 07:07:04;;;;;;;21.60;12.77;;;8.60;1.00;;;;;;5025815;28;20029;-84
2023/04/16 07:09:30;;;;;;;18.80;11.15;;;8.60;1.00;;;;;;5033185;28;20390;-83
2023/04/16 07:11:56;;;;;;;18.80;11.98;;;8.70;1.00;;;;;;5033892;28;20029;-82
2023/04/16 07:14:22;;;;;;;21.95;11.85;;;8.70;1.00;;;;;;5034828;28;20029;-82
2023/04/16 07:16:49;;;;;;;24.20;11.73;;;8.70;1.00;;;;;;5035786;28;20047;-83
2023/04/16 07:19:15;;;;;;;18.42;13.02;;;8.80;1.00;;;;;;5034522;28;20038;-82
2023/04/16 07:21:42;;;;;;;19.45;11.98;;;8.80;1.00;;;;;;5034600;28;20033;-82
2023/04/16 07:24:10;;;;;;;19.27;11.57;;;8.90;1.00;;;;;;5034569;28;20030;-85
2023/04/16 07:26:36;;;;;;;21.98;13.18;;;8.90;1.00;;;;;;5033910;28;20041;-85
2023/04/16 07:29:02;;;;;;;22.00;13.05;;;9.00;1.00;;;;;;5039276;28;20041;-82
2023/04/16 07:31:29;;;;;;;21.30;11.45;;;9.10;1.00;;;;;;5040194;28;20481;-84
2023/04/16 07:33:55;;;;;;;19.27;12.05;;;9.10;1.00;;;;;;5036706;28;20034;-86
2023/04/16 07:36:21;;;;;;;20.55;12.13;;;9.20;99.90;;;;;;5035581;28;20057;-87
2023/04/16 07:38:47;;;;;;;20.83;12.45;;;9.20;99.90;;;;;;5033979;28;20025;-86
2023/04/16 07:41:13;;;;;;;23.15;11.95;;;9.20;99.90;;;;;;5034142;28;20378;-85
2023/04/16 07:43:39;;;;;;;20.20;12.05;;;9.20;99.90;;;;;;5040437;28;20100;-85
2023/04/16 07:46:07;;;;;;;20.15;12.52;;;9.10;99.90;;;;;;5017954;28;20447;-87
2023/04/16 07:48:33;;;;;;;21.05;11.60;;;9.10;99.90;;;;;;5030954;28;20167;-86
2023/04/16 07:50:59;;;;;;;19.63;10.70;;;9.20;99.90;;;;;;5036101;28;20600;-86
2023/04/16 07:53:25;;;;;;;18.35;10.98;;;9.20;99.90;;;;;;5033544;28;20497;-88
2023/04/16 07:55:51;;;;;;;16.90;10.60;;;9.20;99.90;;;;;;5032750;28;20037;-88
2023/04/16 07:58:17;;;;;;;19.83;11.80;;;9.30;99.90;;;;;;5033531;28;20030;-87
2023/04/16 08:00:44;;;;;;;18.38;11.27;;;9.30;99.90;;;;;;5032809;28;20032;-87
2023/04/16 08:03:10;;;;;;;16.70;10.82;;;9.30;99.90;;;;;;5033805;28;20052;-89
2023/04/16 08:05:36;;;;;;;18.85;10.35;;;9.30;99.90;;;;;;5041018;28;20029;-86
2023/04/16 08:08:03;;;;;;;17.73;11.48;;;9.40;99.90;;;;;;5035304;28;20041;-85
2023/04/16 08:10:29;;;;;;;16.83;10.02;;;9.30;99.90;;;;;;5041973;28;20029;-85
2023/04/16 08:12:55;;;;;;;18.25;10.52;;;9.30;99.90;;;;;;5033366;28;20033;-86
2023/04/16 08:15:21;;;;;;;16.45;10.70;;;9.40;99.90;;;;;;5037216;28;20053;-84
2023/04/16 08:17:47;;;;;;;18.10;11.40;;;9.40;99.90;;;;;;5034543;28;20045;-84
2023/04/16 08:20:13;;;;;;;17.58;9.98;;;9.50;99.90;;;;;;5032738;28;20032;-85
2023/04/16 08:22:39;;;;;;;20.25;10.43;;;9.40;99.90;;;;;;5030917;28;20088;-85
2023/04/16 08:25:06;;;;;;;16.33;9.98;;;9.50;99.90;;;;;;5034117;28;20462;-89
2023/04/16 08:27:32;;;;;;;19.27;11.25;;;9.40;99.90;;;;;;5031740;28;20030;-86
2023/04/16 08:29:58;;;;;;;16.67;9.85;;;9.40;99.90;;;;;;5026462;28;20037;-86
2023/04/16 08:32:26;;;;;;;22.67;13.38;;;9.50;99.90;;;;;;5024997;28;20029;-87
2023/04/16 08:34:52;;;;;;;20.88;10.75;;;9.40;99.90;;;;;;5025974;28;20037;-85
2023/04/16 08:37:18;;;;;;;16.80;9.60;;;9.40;99.90;;;;;;5025938;28;20478;-87
2023/04/16 08:39:44;;;;;;;20.80;11.38;;;9.30;99.90;;;;;;5020401;28;20041;-85
2023/04/16 08:42:22;;;;;;;16.73;10.65;;;9.20;1.00;;;;;;5030466;28;20050;-84
2023/04/16 08:44:56;;;;;;;18.25;10.07;;;9.20;1.00;;;;;;5038427;28;20387;-86
2023/04/16 08:47:27;;;;;;;20.77;11.45;;;9.10;1.00;;;;;;5020559;28;20053;-83
2023/04/16 08:49:54;;;;;;;;;;;9.00;1.00;;;;;;5024307;28;20033;-84
2023/04/16 08:52:23;;;;;;;18.20;10.75;;;8.90;1.00;;;;;;5016699;28;19910;-83
2023/04/16 08:54:59;;;;;;;17.42;10.73;;;9.00;1.00;;;;;;5029866;28;20033;-86
2023/04/16 08:57:30;;;;;;;18.08;10.85;;;8.90;1.00;;;;;;5033983;28;20045;-84
2023/04/16 08:59:58;;;;;;;20.88;11.35;;;8.90;1.00;;;;;;5040216;28;20029;-84
2023/04/16 09:02:25;;;;;;;22.55;12.43;;;8.90;1.00;;;;;;5033214;28;20038;-84
2023/04/16 09:04:53;;;;;;;22.27;12.10;;;8.90;1.00;;;;;;5031732;28;20041;-80
2023/04/16 09:07:20;;;;;;;22.23;11.32;;;8.90;1.00;;;;;;5027279;28;20034;-78
2023/04/16 09:09:49;;;;;;;20.27;11.38;;;8.90;1.00;;;;;;5031165;28;20033;-77
2023/04/16 09:12:16;;;;;;;20.90;11.77;;;8.90;1.00;;;;;;5033534;28;20029;-77
2023/04/16 09:14:45;;;;;;;18.55;10.75;;;8.80;1.00;;;;;;5031342;28;20034;-76
2023/04/16 09:17:13;;;;;;;18.67;11.77;;;8.80;1.00;;;;;;5028288;28;20048;-75
2023/04/16 09:19:39;;;;;;;19.42;11.02;;;8.80;1.00;;;;;;5027311;28;20029;-75
2023/04/16 09:22:05;;;;;;;15.48;9.63;;;8.70;1.00;;;;;;5046393;28;20045;-75
2023/04/16 09:24:33;;;;;;;21.70;12.48;;;8.60;1.00;;;;;;5032177;28;20044;-76
2023/04/16 09:27:00;;;;;;;17.42;10.13;;;8.70;1.00;;;;;;5030899;28;20044;-76
2023/04/16 09:29:36;;;;;;;19.50;12.50;;;8.70;11.20;;;;;;5030577;28;20026;-76
2023/04/16 09:32:04;;;;;;;22.48;12.10;;;8.70;14.80;;;;;;5030937;28;20549;-78
2023/04/16 09:34:32;;;;;;;18.25;11.65;;;8.70;11.60;;;;;;5030586;28;20044;-77
2023/04/16 09:37:17;;;;;;;21.38;13.00;;;8.70;12.30;;;;;;5031872;28;20060;-78
2023/04/16 09:39:44;;;;;;;20.00;12.15;;;8.80;17.10;;;;;;5029049;28;20030;-81
2023/04/16 09:42:13;;;;;;;16.80;10.07;;;8.80;21.20;;;;;;5031187;28;20049;-77
2023/04/16 09:44:39;;;;;;;20.27;11.40;;;8.80;25.80;;;;;;5038964;28;20042;-77
2023/04/16 09:47:07;;;;;;;21.45;11.98;;;8.90;28.60;;;;;;5030944;28;20029;-78
2023/04/16 09:49:37;;;;;;;20.13;12.20;;;8.90;24.90;;;;;;5027816;28;20408;-76
2023/04/16 09:52:17;;;;;;;21.40;12.20;;;8.90;5.00;;;;;;5027104;28;20041;-76
2023/04/16 09:54:52;;;;;;;18.77;11.68;;;8.90;2.10;;;;;;5031490;28;20037;-82
2023/04/16 09:57:23;;;;;;;17.17;9.95;;;8.90;7.10;;;;;;5031216;28;20041;-77
2023/04/16 10:00:00;;;;;;;16.50;10.63;;;8.90;7.10;;;;;;5029370;28;20033;-77
2023/04/16 10:02:29;;;;;;;22.95;12.88;;;8.90;12.20;;;;;;5031099;28;20060;-77
2023/04/16 10:04:56;;;;;;;21.65;12.98;;;9.00;18.80;;;;;;5029437;28;20036;-77
2023/04/16 10:07:27;;;;;;;27.25;16.27;;;8.80;14.40;;;;;;5030899;28;20402;-76
2023/04/16 10:09:54;;;;;;;;;;;8.80;17.30;;;;;;5030686;28;20056;-76
2023/04/16 10:12:20;;;;;;;23.70;13.18;;;8.80;19.60;;;;;;5031382;28;20278;-81
2023/04/16 10:14:46;;;;;;;23.90;13.10;;;8.80;11.90;;;;;;5029348;28;20036;-78
2023/04/16 10:17:14;;;;;;;25.58;14.60;;;8.80;10.40;;;;;;5030091;28;20037;-77
2023/04/16 10:19:40;;;;;;;21.55;12.93;;;8.90;1.00;;;;;;5033903;28;20410;-77
2023/04/16 10:22:07;;;;;;;21.05;11.82;;;8.90;1.00;;;;;;5034225;28;20579;-78
2023/04/16 10:24:34;;;;;;;19.00;11.98;;;8.90;1.00;;;;;;5035392;28;20053;-77
2023/04/16 10:27:00;;;;;;;22.65;13.63;;;9.00;1.00;;;;;;5034231;28;20038;-75
2023/04/16 10:29:28;;;;;;;23.63;13.30;;;9.10;1.00;;;;;;5034782;28;20033;-75
2023/04/16 10:31:55;;;;;;;24.23;13.00;;;9.20;1.00;;;;;;5030424;28;20041;-77
2023/04/16 10:34:23;;;;;;;23.90;15.43;;;9.20;1.00;;;;;;5034624;28;20029;-75
2023/04/16 10:36:52;;;;;;;22.13;13.68;;;9.30;1.00;;;;;;5034087;28;20053;-77
2023/04/16 10:39:24;;;;;;;26.20;13.02;;;9.30;1.00;;;;;;5034087;28;20038;-76
2023/04/16 10:42:06;;;;;;;21.58;12.60;;;9.30;1.00;;;;;;5032616;28;20075;-77
2023/04/16 10:44:32;;;;;;;20.65;12.65;;;9.40;1.00;;;;;;5032181;28;20463;-75
2023/04/16 10:46:59;;;;;;;21.75;12.73;;;9.40;1.00;;;;;;5032394;28;20064;-75
2023/04/16 10:49:26;;;;;;;21.08;12.32;;;9.50;1.00;;;;;;5034750;28;20037;-76
2023/04/16 10:51:54;;;;;;;21.30;12.68;;;9.60;1.00;;;;;;5033636;28;20038;-77
2023/04/16 10:54:26;;;;;;;23.85;13.63;;;9.60;1.00;;;;;;5030835;28;20048;-76
2023/04/16 10:56:55;;;;;;;21.83;13.85;;;9.50;1.00;;;;;;5030165;28;20045;-77
2023/04/16 10:59:23;;;;;;;21.00;12.85;;;9.50;1.00;;;;;;5034106;28;20029;-77
2023/04/16 11:01:52;;;;;;;21.15;12.85;;;9.50;1.00;;;;;;5033891;28;20394;-77
2023/04/16 11:04:18;;;;;;;25.77;13.02;;;9.60;1.00;;;;;;5030909;28;20033;-76
2023/04/16 11:07:08;;;;;;;22.48;13.05;;;9.60;1.00;;;;;;5034330;28;20041;-76
2023/04/16 11:09:51;;;;;;;21.25;11.52;;;9.60;1.00;;;;;;5030506;28;20501;-76
2023/04/16 11:12:19;;;;;;;27.77;14.88;;;9.60;1.00;;;;;;5034225;28;20044;-77
2023/04/16 11:14:51;;;;;;;22.90;14.30;;;9.70;1.00;;;;;;5037836;28;20046;-77
2023/04/16 11:17:18;;;;;;;24.02;13.93;;;9.80;1.00;;;;;;5021388;28;20487;-78
2023/04/16 11:19:44;;;;;;;23.25;14.40;;;9.70;1.00;;;;;;5041120;28;20025;-77
2023/04/16 11:22:16;;;;;;;26.92;17.25;;;9.70;1.00;;;;;;5033234;28;20045;-77
2023/04/16 11:24:45;;;;;;;24.13;14.23;;;9.70;1.00;;;;;;5028792;28;20135;-77
2023/04/16 11:27:13;;;;;;;23.65;13.10;;;9.70;1.00;;;;;;5029134;28;20609;-77
2023/04/16 11:29:40;;;;;;;23.17;14.18;;;9.60;1.00;;;;;;5032570;28;20029;-76
2023/04/16 11:32:06;;;;;;;22.48;14.05;;;9.60;1.00;;;;;;5031546;28;20133;-77
2023/04/16 11:34:33;;;;;;;28.30;16.55;;;9.60;1.00;;;;;;5040581;28;20052;-77
2023/04/16 11:36:59;;;;;;;22.90;12.82;;;9.70;1.00;;;;;;5032775;28;20041;-77
2023/04/16 11:39:26;;;;;;;29.00;15.98;;;9.70;1.00;;;;;;5033460;28;20091;-76
2023/04/16 11:41:52;;;;;;;24.95;15.95;;;9.80;1.00;;;;;;5033020;28;20044;-79
2023/04/16 11:44:24;;;;;;;27.90;16.00;;;9.90;1.00;;;;;;5030738;28;20379;-77
2023/04/16 11:46:52;;;;;;;22.20;13.52;;;9.90;1.00;;;;;;5024096;28;20041;-77
2023/04/16 11:49:31;;;;;;;26.25;16.20;;;9.90;1.00;;;;;;5031754;28;20029;-77
2023/04/16 11:51:57;;;;;;;23.67;14.68;;;10.00;1.00;;;;;;5033025;28;20070;-76
2023/04/16 11:54:24;;;;;;;24.17;13.68;;;10.00;1.00;;;;;;5029279;28;20057;-76
2023/04/16 11:56:52;;;;;;;27.70;17.33;;;10.00;1.00;;;;;;5025488;28;20042;-80
2023/04/16 11:59:21;;;;;;;25.88;16.80;;;10.10;1.00;;;;;;5026876;28;20037;-77
2023/04/16 12:01:49;;;;;;;31.02;21.00;;;10.10;1.00;;;;;;5031052;28;20041;-76
2023/04/16 12:04:18;;;;;;;21.48;13.43;;;10.10;1.00;;;;;;5032599;28;20371;-77
2023/04/16 12:07:03;;;;;;;28.50;15.55;;;10.10;1.00;;;;;;5033429;28;20405;-76
2023/04/16 12:09:30;;;;;;;22.60;14.27;;;10.20;1.00;;;;;;5034036;28;20059;-76
2023/04/16 12:11:56;;;;;;;41.85;24.92;;;10.30;1.00;;;;;;5035768;28;20054;-80
2023/04/16 12:14:22;;;;;;;51.60;32.03;;;10.30;1.00;;;;;;5033396;28;20033;-76
2023/04/16 12:16:48;;;;;;;30.98;18.40;;;10.40;1.00;;;;;;5032770;28;20033;-76
2023/04/16 12:19:15;;;;;;;22.45;15.13;;;10.40;99.90;;;;;;5032337;28;20033;-76
2023/04/16 12:21:46;;;;;;;28.35;18.40;;;10.30;99.90;;;;;;5032677;28;20034;-76
2023/04/16 12:24:15;;;;;;;26.95;16.73;;;10.30;99.90;;;;;;5026234;28;20053;-76
2023/04/16 12:26:47;;;;;;;31.25;19.05;;;10.40;99.90;;;;;;5032581;28;20489;-77
2023/04/16 12:29:18;;;;;;;23.23;14.55;;;10.40;99.90;;;;;;5031938;28;20033;-77
2023/04/16 12:31:45;;;;;;;22.65;13.90;;;10.40;99.90;;;;;;5032414;28;20033;-77
2023/04/16 12:34:14;;;;;;;24.90;16.45;;;10.40;1.00;;;;;;5031572;28;20035;-77
2023/04/16 12:36:41;;;;;;;20.83;14.13;;;10.40;1.00;;;;;;5037321;28;20052;-77
2023/04/16 12:39:09;;;;;;;20.02;12.00;;;10.50;99.90;;;;;;5031522;28;20356;-77
2023/04/16 12:41:36;;;;;;;20.20;13.88;;;10.40;99.90;;;;;;5031862;28;20079;-77
2023/04/16 12:44:11;;;;;;;22.15;13.38;;;10.50;1.00;;;;;;5031501;28;20117;-77
2023/04/16 12:46:41;;;;;;;20.20;12.45;;;10.60;99.90;;;;;;5032230;28;20033;-77